createdAt,value
2018-10-18T00:00:18.540Z,99.99
2018-10-18T00:01:18.493Z,99.99
2018-10-18T00:02:19.085Z,99.99
2018-10-18T00:03:18.940Z,99.99
2018-10-18T00:04:18.738Z,99.99
2018-10-18T00:05:18.742Z,99.99
2018-10-18T00:06:19.000Z,99.99
2018-10-18T00:07:18.731Z,99.99
2018-10-18T00:08:18.473Z,99.99
2018-10-18T00:09:18.734Z,99.99
2018-10-18T00:10:18.729Z,99.99
2018-10-18T00:11:18.717Z,99.99
2018-10-18T00:12:19.032Z,99.99
2018-10-18T00:13:18.463Z,99.99
2018-10-18T00:14:19.024Z,99.99
2018-10-18T00:15:18.740Z,99.99
2018-10-18T00:16:18.446Z,99.99
2018-10-18T00:17:18.707Z,99.99
2018-10-18T00:18:18.453Z,99.99
2018-10-18T00:19:18.692Z,99.99
2018-10-18T00:20:18.435Z,99.99
2018-10-18T00:21:18.444Z,99.99
2018-10-18T00:22:18.432Z,99.99
2018-10-18T00:23:18.682Z,99.99
2018-10-18T00:24:18.942Z,99.99
2018-10-18T00:25:18.423Z,99.99
2018-10-18T00:26:18.881Z,99.99
2018-10-18T00:27:18.678Z,99.99
2018-10-18T00:28:18.700Z,99.99
2018-10-18T00:29:18.409Z,99.99
2018-10-18T00:30:18.556Z,99.99
2018-10-18T00:31:18.668Z,99.99
2018-10-18T00:32:18.766Z,99.99
2018-10-18T00:33:18.393Z,99.99
2018-10-18T00:34:18.651Z,99.99
2018-10-18T00:35:18.653Z,99.99
2018-10-18T00:36:18.967Z,99.99
2018-10-18T00:37:18.642Z,99.99
2018-10-18T00:38:18.855Z,99.99
2018-10-18T00:39:18.650Z,99.99
2018-10-18T00:40:18.373Z,99.99
2018-10-18T00:41:18.626Z,99.99
2018-10-18T00:42:18.954Z,99.99
2018-10-18T00:43:18.366Z,99.99
2018-10-18T00:44:18.913Z,99.99
2018-10-18T00:45:18.611Z,99.99
2018-10-18T00:46:18.619Z,99.99
2018-10-18T00:47:18.608Z,99.99
2018-10-18T00:48:18.778Z,99.99
2018-10-18T00:49:18.605Z,99.99
2018-10-18T00:50:18.833Z,99.99
2018-10-18T00:51:18.602Z,99.99
2018-10-18T00:52:18.586Z,99.99
2018-10-18T00:53:18.338Z,99.99
2018-10-18T00:54:18.329Z,99.99
2018-10-18T00:55:18.331Z,99.99
2018-10-18T00:56:18.769Z,99.99
2018-10-18T00:57:18.315Z,99.99
2018-10-18T00:58:18.567Z,99.99
2018-10-18T00:59:18.334Z,99.99
2018-10-18T01:00:18.857Z,99.99
2018-10-18T01:01:18.557Z,99.99
2018-10-18T01:02:18.413Z,99.99
2018-10-18T01:03:18.301Z,99.99
2018-10-18T01:04:18.303Z,99.99
2018-10-18T01:05:18.556Z,99.99
2018-10-18T01:06:18.906Z,99.99
2018-10-18T01:07:18.289Z,99.99
2018-10-18T01:08:18.711Z,99.99
2018-10-18T01:09:18.297Z,99.99
2018-10-18T01:10:18.268Z,99.99
2018-10-18T01:11:18.271Z,99.99
2018-10-18T01:12:19.692Z,99.99
2018-10-18T01:13:18.515Z,99.99
2018-10-18T01:14:18.755Z,99.99
2018-10-18T01:15:18.510Z,99.99
2018-10-18T01:16:18.242Z,99.99
2018-10-18T01:17:18.498Z,99.99
2018-10-18T01:18:18.236Z,99.99
2018-10-18T01:19:18.496Z,99.99
2018-10-18T01:20:18.813Z,99.99
2018-10-18T01:21:18.486Z,99.99
2018-10-18T01:22:18.235Z,99.99
2018-10-18T01:23:18.480Z,99.99
2018-10-18T01:24:18.608Z,99.99
2018-10-18T01:25:18.473Z,99.99
2018-10-18T01:26:18.681Z,99.99
2018-10-18T01:27:18.214Z,99.99
2018-10-18T01:28:18.479Z,99.99
2018-10-18T01:29:18.201Z,99.99
2018-10-18T01:30:18.689Z,99.99
2018-10-18T01:31:18.454Z,99.99
2018-10-18T01:32:19.088Z,99.99
2018-10-18T01:33:18.447Z,99.99
2018-10-18T01:34:18.449Z,99.99
2018-10-18T01:35:18.444Z,99.99
2018-10-18T01:36:18.701Z,99.99
2018-10-18T01:37:18.444Z,99.99
2018-10-18T01:38:18.637Z,99.99
2018-10-18T01:39:18.426Z,99.99
2018-10-18T01:40:18.422Z,99.99
2018-10-18T01:41:18.437Z,99.99
2018-10-18T01:42:18.643Z,99.99
2018-10-18T01:43:18.158Z,99.99
2018-10-18T01:44:18.638Z,99.99
2018-10-18T01:45:18.145Z,99.99
2018-10-18T01:46:18.405Z,99.99
2018-10-18T01:47:18.400Z,99.99
2018-10-18T01:48:18.552Z,99.99
2018-10-18T01:49:18.138Z,99.99
2018-10-18T01:50:18.652Z,99.99
2018-10-18T01:51:18.392Z,99.99
2018-10-18T01:52:18.136Z,99.99
2018-10-18T01:53:18.122Z,99.99
2018-10-18T01:54:18.660Z,99.99
2018-10-18T01:55:18.114Z,99.99
2018-10-18T01:56:18.114Z,99.99
2018-10-18T01:57:18.366Z,99.99
2018-10-18T01:58:18.370Z,99.99
2018-10-18T01:59:18.358Z,99.99
2018-10-18T02:00:18.677Z,99.99
2018-10-18T02:01:18.375Z,99.99
2018-10-18T02:02:18.558Z,99.99
2018-10-18T02:03:18.353Z,99.99
2018-10-18T02:04:18.080Z,99.99
2018-10-18T02:05:18.349Z,99.99
2018-10-18T02:06:18.729Z,99.99
2018-10-18T02:07:18.337Z,99.99
2018-10-18T02:08:18.625Z,99.99
2018-10-18T02:09:18.336Z,99.99
2018-10-18T02:10:18.322Z,99.99
2018-10-18T02:11:18.340Z,99.99
2018-10-18T02:12:18.165Z,99.99
2018-10-18T02:13:18.316Z,99.99
2018-10-18T02:14:18.322Z,99.99
2018-10-18T02:15:18.302Z,99.99
2018-10-18T02:16:18.307Z,99.99
2018-10-18T02:17:18.042Z,99.99
2018-10-18T02:18:18.569Z,99.99
2018-10-18T02:19:18.541Z,99.99
2018-10-18T02:20:18.292Z,99.99
2018-10-18T02:21:18.029Z,99.99
2018-10-18T02:22:18.275Z,99.99
2018-10-18T02:23:18.272Z,99.99
2018-10-18T02:24:18.519Z,99.99
2018-10-18T02:25:18.420Z,99.99
2018-10-18T02:26:18.029Z,99.99
2018-10-18T02:27:18.253Z,99.99
2018-10-18T02:28:17.990Z,99.99
2018-10-18T02:29:18.246Z,99.99
2018-10-18T02:30:18.550Z,99.99
2018-10-18T02:31:18.252Z,99.99
2018-10-18T02:32:18.239Z,99.99
2018-10-18T02:33:17.983Z,99.99
2018-10-18T02:34:17.968Z,99.99
2018-10-18T02:35:18.239Z,99.99
2018-10-18T02:36:18.436Z,99.99
2018-10-18T02:37:18.222Z,99.99
2018-10-18T02:38:17.980Z,99.99
2018-10-18T02:39:18.218Z,99.99
2018-10-18T02:40:18.214Z,99.99
2018-10-18T02:41:18.199Z,99.99
2018-10-18T02:42:18.414Z,99.99
2018-10-18T02:43:18.197Z,99.99
2018-10-18T02:44:18.208Z,99.99
2018-10-18T02:45:17.939Z,99.99
2018-10-18T02:46:17.924Z,99.99
2018-10-18T02:47:17.927Z,99.99
2018-10-18T02:48:18.494Z,99.99
2018-10-18T02:49:18.170Z,99.99
2018-10-18T02:50:18.178Z,99.99
2018-10-18T02:51:17.910Z,99.99
2018-10-18T02:52:18.162Z,99.99
2018-10-18T02:53:18.164Z,99.99
2018-10-18T02:54:18.598Z,99.99
2018-10-18T02:55:18.148Z,99.99
2018-10-18T02:56:17.899Z,99.99
2018-10-18T02:57:17.888Z,99.99
2018-10-18T02:58:18.139Z,99.99
2018-10-18T02:59:17.887Z,99.99
2018-10-18T03:00:18.023Z,99.99
2018-10-18T03:01:18.134Z,99.99
2018-10-18T03:02:17.881Z,99.99
2018-10-18T03:03:18.125Z,99.99
2018-10-18T03:04:18.148Z,99.99
2018-10-18T03:05:18.124Z,99.99
2018-10-18T03:06:18.360Z,99.99
2018-10-18T03:07:18.112Z,99.99
2018-10-18T03:08:18.100Z,99.99
2018-10-18T03:09:18.097Z,99.99
2018-10-18T03:10:18.108Z,99.99
2018-10-18T03:11:18.090Z,99.99
2018-10-18T03:12:17.929Z,99.99
2018-10-18T03:13:17.826Z,99.99
2018-10-18T03:14:18.093Z,99.99
2018-10-18T03:15:18.079Z,99.99
2018-10-18T03:16:18.084Z,99.99
2018-10-18T03:17:18.070Z,99.99
2018-10-18T03:18:18.321Z,99.99
2018-10-18T03:19:18.065Z,99.99
2018-10-18T03:20:18.062Z,99.99
2018-10-18T03:21:17.800Z,99.99
2018-10-18T03:22:18.055Z,99.99
2018-10-18T03:23:18.063Z,99.99
2018-10-18T03:24:18.449Z,99.99
2018-10-18T03:25:17.787Z,99.99
2018-10-18T03:26:17.785Z,99.99
2018-10-18T03:27:18.031Z,99.99
2018-10-18T03:28:18.065Z,99.99
2018-10-18T03:29:18.028Z,99.99
2018-10-18T03:30:17.830Z,99.99
2018-10-18T03:31:18.024Z,99.99
2018-10-18T03:32:18.019Z,99.99
2018-10-18T03:33:18.012Z,99.99
2018-10-18T03:34:18.008Z,99.99
2018-10-18T03:35:18.002Z,99.99
2018-10-18T03:36:18.252Z,99.99
2018-10-18T03:37:18.000Z,99.99
2018-10-18T03:38:17.735Z,99.99
2018-10-18T03:39:17.739Z,99.99
2018-10-18T03:40:17.746Z,99.99
2018-10-18T03:41:18.081Z,99.99
2018-10-18T03:42:18.347Z,99.99
2018-10-18T03:43:17.723Z,99.99
2018-10-18T03:44:17.974Z,99.99
2018-10-18T03:45:17.729Z,99.99
2018-10-18T03:46:17.706Z,99.99
2018-10-18T03:47:17.702Z,99.99
2018-10-18T03:48:17.844Z,99.99
2018-10-18T03:49:17.987Z,99.99
2018-10-18T03:50:17.693Z,99.99
2018-10-18T03:51:17.685Z,99.99
2018-10-18T03:52:17.685Z,99.99
2018-10-18T03:53:17.937Z,99.99
2018-10-18T03:54:18.226Z,99.99
2018-10-18T03:55:17.930Z,99.99
2018-10-18T03:56:17.930Z,99.99
2018-10-18T03:57:17.929Z,99.99
2018-10-18T03:58:17.923Z,99.99
2018-10-18T03:59:17.915Z,99.99
2018-10-18T04:00:18.166Z,99.99
2018-10-18T04:01:17.649Z,99.99
2018-10-18T04:02:17.646Z,99.99
2018-10-18T04:03:17.650Z,99.99
2018-10-18T04:04:17.638Z,99.99
2018-10-18T04:05:17.890Z,99.99
2018-10-18T04:06:17.698Z,99.99
2018-10-18T04:07:17.893Z,99.99
2018-10-18T04:08:17.885Z,99.99
2018-10-18T04:09:17.879Z,99.99
2018-10-18T04:10:17.618Z,99.99
2018-10-18T04:11:17.873Z,99.99
2018-10-18T04:12:18.166Z,99.99
2018-10-18T04:13:18.026Z,99.99
2018-10-18T04:14:17.603Z,99.99
2018-10-18T04:15:17.865Z,99.99
2018-10-18T04:16:17.861Z,99.99
2018-10-18T04:17:17.589Z,99.99
2018-10-18T04:18:17.868Z,99.99
2018-10-18T04:19:17.841Z,99.99
2018-10-18T04:20:17.858Z,99.99
2018-10-18T04:21:17.573Z,99.99
2018-10-18T04:22:17.829Z,99.99
2018-10-18T04:23:17.569Z,99.99
2018-10-18T04:24:17.689Z,99.99
2018-10-18T04:25:17.843Z,99.99
2018-10-18T04:26:17.567Z,99.99
2018-10-18T04:27:17.806Z,99.99
2018-10-18T04:28:17.804Z,99.99
2018-10-18T04:29:17.800Z,99.99
2018-10-18T04:30:18.053Z,99.99
2018-10-18T04:31:17.792Z,99.99
2018-10-18T04:32:17.801Z,99.99
2018-10-18T04:33:17.547Z,99.99
2018-10-18T04:34:17.792Z,99.99
2018-10-18T04:35:17.783Z,99.99
2018-10-18T04:36:17.664Z,99.99
2018-10-18T04:37:17.532Z,99.99
2018-10-18T04:38:17.508Z,99.99
2018-10-18T04:39:17.517Z,99.99
2018-10-18T04:40:17.758Z,99.99
2018-10-18T04:41:17.759Z,99.99
2018-10-18T04:42:17.996Z,99.99
2018-10-18T04:43:17.748Z,99.99
2018-10-18T04:44:17.742Z,99.99
2018-10-18T04:45:17.734Z,99.99
2018-10-18T04:46:17.728Z,99.99
2018-10-18T04:47:18.044Z,99.99
2018-10-18T04:48:18.078Z,99.99
2018-10-18T04:49:17.461Z,99.99
2018-10-18T04:50:17.716Z,99.99
2018-10-18T04:51:17.465Z,99.99
2018-10-18T04:52:17.708Z,99.99
2018-10-18T04:53:17.715Z,99.99
2018-10-18T04:54:17.448Z,99.99
2018-10-18T04:55:17.887Z,99.99
2018-10-18T04:56:17.699Z,99.99
2018-10-18T04:57:17.431Z,99.99
2018-10-18T04:58:17.687Z,99.99
2018-10-18T04:59:17.686Z,99.99
2018-10-18T05:00:17.683Z,99.99
2018-10-18T05:01:18.047Z,99.99
2018-10-18T05:02:17.411Z,99.99
2018-10-18T05:03:17.405Z,99.99
2018-10-18T05:04:17.416Z,99.99
2018-10-18T05:05:17.672Z,99.99
2018-10-18T05:06:17.396Z,99.99
2018-10-18T05:07:17.858Z,99.99
2018-10-18T05:08:17.656Z,99.99
2018-10-18T05:09:17.394Z,99.99
2018-10-18T05:10:17.648Z,99.99
2018-10-18T05:11:17.929Z,99.99
2018-10-18T05:12:17.641Z,99.99
2018-10-18T05:13:17.449Z,99.99
2018-10-18T05:14:17.384Z,99.99
2018-10-18T05:15:17.622Z,99.99
2018-10-18T05:16:17.616Z,99.99
2018-10-18T05:17:17.358Z,99.99
2018-10-18T05:18:17.363Z,99.99
2018-10-18T05:19:17.487Z,99.99
2018-10-18T05:20:17.344Z,99.99
2018-10-18T05:21:17.606Z,99.99
2018-10-18T05:22:17.597Z,99.99
2018-10-18T05:23:17.333Z,99.99
2018-10-18T05:24:17.326Z,99.99
2018-10-18T05:25:17.949Z,99.99
2018-10-18T05:26:17.603Z,99.99
2018-10-18T05:27:17.579Z,99.99
2018-10-18T05:28:17.309Z,99.99
2018-10-18T05:29:17.569Z,99.99
2018-10-18T05:30:17.570Z,99.99
2018-10-18T05:31:17.945Z,99.99
2018-10-18T05:32:17.552Z,99.99
2018-10-18T05:33:17.577Z,99.99
2018-10-18T05:34:17.296Z,99.99
2018-10-18T05:35:17.294Z,99.99
2018-10-18T05:36:17.296Z,99.99
2018-10-18T05:37:17.811Z,99.99
2018-10-18T05:38:17.536Z,99.99
2018-10-18T05:39:17.525Z,99.99
2018-10-18T05:40:17.522Z,99.99
2018-10-18T05:41:17.519Z,99.99
2018-10-18T05:42:17.516Z,99.99
2018-10-18T05:43:17.825Z,99.99
2018-10-18T05:44:17.246Z,99.99
2018-10-18T05:45:17.503Z,99.99
2018-10-18T05:46:17.250Z,99.99
2018-10-18T05:47:17.398Z,99.99
2018-10-18T05:48:17.500Z,99.99
2018-10-18T05:49:17.984Z,99.99
2018-10-18T05:50:17.237Z,99.99
2018-10-18T05:51:17.479Z,99.99
2018-10-18T05:52:17.470Z,99.99
2018-10-18T05:53:17.720Z,99.99
2018-10-18T05:54:17.778Z,99.99
2018-10-18T05:55:17.703Z,99.99
2018-10-18T05:56:17.465Z,99.99
2018-10-18T05:57:17.452Z,99.99
2018-10-18T05:58:17.470Z,99.99
2018-10-18T05:59:17.472Z,99.99
2018-10-18T06:00:17.843Z,99.99
2018-10-18T06:01:17.769Z,99.99
2018-10-18T06:02:17.195Z,99.99
2018-10-18T06:03:17.179Z,99.99
2018-10-18T06:04:17.445Z,99.99
2018-10-18T06:05:17.159Z,99.99
2018-10-18T06:06:17.158Z,99.99
2018-10-18T06:07:17.676Z,99.99
2018-10-18T06:08:17.405Z,99.99
2018-10-18T06:09:17.418Z,99.99
2018-10-18T06:10:17.803Z,99.99
2018-10-18T06:11:17.396Z,99.99
2018-10-18T06:12:17.135Z,99.99
2018-10-18T06:13:17.713Z,99.99
2018-10-18T06:14:17.383Z,99.99
2018-10-18T06:15:17.387Z,99.99
2018-10-18T06:16:17.387Z,99.99
2018-10-18T06:17:17.371Z,99.99
2018-10-18T06:18:17.373Z,99.99
2018-10-18T06:19:17.704Z,99.99
2018-10-18T06:20:17.104Z,99.99
2018-10-18T06:21:17.354Z,99.99
2018-10-18T06:22:17.365Z,99.99
2018-10-18T06:23:17.562Z,99.99
2018-10-18T06:24:17.105Z,99.99
2018-10-18T06:25:17.728Z,99.99
2018-10-18T06:26:17.079Z,99.99
2018-10-18T06:27:17.078Z,99.99
2018-10-18T06:28:17.089Z,99.99
2018-10-18T06:29:17.449Z,99.99
2018-10-18T06:30:17.321Z,99.99
2018-10-18T06:31:17.322Z,99.99
2018-10-18T06:32:17.056Z,99.99
2018-10-18T06:33:17.069Z,99.99
2018-10-18T06:34:17.321Z,99.99
2018-10-18T06:35:17.044Z,99.99
2018-10-18T06:36:17.304Z,99.99
2018-10-18T06:37:17.700Z,99.99
2018-10-18T06:38:17.296Z,99.99
2018-10-18T06:39:17.610Z,99.99
2018-10-18T06:40:17.282Z,99.99
2018-10-18T06:41:17.177Z,99.99
2018-10-18T06:42:17.275Z,99.99
2018-10-18T06:43:17.518Z,99.99
2018-10-18T06:44:17.274Z,99.99
2018-10-18T06:45:17.007Z,99.99
2018-10-18T06:46:17.007Z,99.99
2018-10-18T06:47:17.365Z,99.99
2018-10-18T06:48:17.273Z,99.99
2018-10-18T06:49:17.739Z,99.99
2018-10-18T06:50:16.996Z,99.99
2018-10-18T06:51:16.994Z,99.99
2018-10-18T06:52:16.982Z,99.99
2018-10-18T06:53:16.985Z,99.99
2018-10-18T06:54:17.031Z,99.99
2018-10-18T06:55:17.495Z,99.99
2018-10-18T06:56:17.234Z,99.99
2018-10-18T06:57:16.971Z,99.99
2018-10-18T06:58:17.222Z,99.99
2018-10-18T06:59:16.978Z,99.99
2018-10-18T07:00:17.065Z,99.99
2018-10-18T07:01:17.217Z,99.99
2018-10-18T07:02:17.210Z,99.99
2018-10-18T07:03:17.208Z,99.99
2018-10-18T07:04:16.950Z,99.99
2018-10-18T07:05:17.213Z,99.99
2018-10-18T07:06:17.394Z,99.95
2018-10-18T07:07:16.959Z,99.28
2018-10-18T07:08:16.947Z,98.23
2018-10-18T07:09:17.208Z,97.13
2018-10-18T07:10:16.935Z,96.75
2018-10-18T07:11:17.206Z,96.46
2018-10-18T07:12:17.408Z,96.27
2018-10-18T07:13:17.189Z,95.51
2018-10-18T07:14:16.929Z,95.22
2018-10-18T07:15:16.920Z,94.84
2018-10-18T07:16:17.179Z,94.31
2018-10-18T07:17:16.925Z,92.59
2018-10-18T07:18:17.479Z,92.02
2018-10-18T07:19:16.914Z,91.35
2018-10-18T07:20:17.176Z,92.02
2018-10-18T07:21:16.924Z,92.21
2018-10-18T07:22:17.163Z,91.35
2018-10-18T07:23:16.903Z,91.35
2018-10-18T07:24:17.554Z,91.16
2018-10-18T07:25:17.250Z,90.2
2018-10-18T07:26:17.164Z,89.67
2018-10-18T07:27:16.903Z,89.87
2018-10-18T07:28:17.177Z,90.34
2018-10-18T07:29:17.159Z,90.39
2018-10-18T07:30:16.944Z,90.68
2018-10-18T07:31:16.898Z,91.45
2018-10-18T07:32:17.146Z,90.78
2018-10-18T07:33:17.157Z,89.96
2018-10-18T07:34:16.886Z,89.58
2018-10-18T07:35:17.228Z,89.48
2018-10-18T07:36:17.441Z,89.29
2018-10-18T07:37:17.198Z,89.29
2018-10-18T07:38:16.884Z,88.72
2018-10-18T07:39:16.877Z,89.2
2018-10-18T07:40:17.136Z,88.72
2018-10-18T07:41:17.418Z,88.91
2018-10-18T07:42:17.328Z,88.43
2018-10-18T07:43:16.870Z,89.2
2018-10-18T07:44:17.137Z,88.72
2018-10-18T07:45:17.020Z,88.43
2018-10-18T07:46:16.874Z,87.95
2018-10-18T07:47:17.139Z,88.05
2018-10-18T07:48:17.451Z,87.23
2018-10-18T07:49:17.137Z,87.33
2018-10-18T07:50:17.129Z,86.57
2018-10-18T07:51:16.870Z,85.89
2018-10-18T07:52:17.122Z,84.69
2018-10-18T07:53:17.551Z,83.06
2018-10-18T07:54:17.358Z,81.77
2018-10-18T07:55:16.860Z,80.71
2018-10-18T07:56:16.860Z,80.62
2018-10-18T07:57:16.859Z,79.95
2018-10-18T07:58:16.865Z,80.43
2018-10-18T07:59:16.857Z,80.43
2018-10-18T08:00:17.445Z,80.33
2018-10-18T08:01:17.122Z,80.9
2018-10-18T08:02:16.857Z,80.9
2018-10-18T08:03:17.128Z,79.75
2018-10-18T08:04:17.109Z,80.33
2018-10-18T08:05:17.125Z,80.33
2018-10-18T08:06:16.855Z,80.9
2018-10-18T08:07:17.009Z,81
2018-10-18T08:08:16.856Z,81.2
2018-10-18T08:09:17.137Z,80.33
2018-10-18T08:10:17.113Z,80.71
2018-10-18T08:11:16.853Z,80.71
2018-10-18T08:12:17.106Z,80.81
2018-10-18T08:13:17.340Z,81.1
2018-10-18T08:14:17.172Z,81.73
2018-10-18T08:15:17.116Z,82.2
2018-10-18T08:16:17.134Z,82.59
2018-10-18T08:17:17.537Z,82.68
2018-10-18T08:18:17.113Z,83.36
2018-10-18T08:19:17.482Z,83.54
2018-10-18T08:20:17.112Z,83.73
2018-10-18T08:21:16.876Z,84.02
2018-10-18T08:22:17.113Z,84.17
2018-10-18T08:23:17.108Z,83.69
2018-10-18T08:24:17.107Z,84.17
2018-10-18T08:25:17.369Z,83.89
2018-10-18T08:26:17.103Z,84.02
2018-10-18T08:27:17.104Z,84.17
2018-10-18T08:28:16.847Z,83.89
2018-10-18T08:29:16.847Z,83.89
2018-10-18T08:30:16.847Z,84.55
2018-10-18T08:31:17.550Z,84.65
2018-10-18T08:32:17.105Z,85.03
2018-10-18T08:33:17.097Z,84.65
2018-10-18T08:34:16.848Z,84.75
2018-10-18T08:35:16.861Z,85.22
2018-10-18T08:36:17.105Z,84.46
2018-10-18T08:37:17.355Z,84.75
2018-10-18T08:38:17.468Z,84.94
2018-10-18T08:39:17.098Z,85.41
2018-10-18T08:40:17.112Z,85.41
2018-10-18T08:41:17.097Z,84.75
2018-10-18T08:42:16.855Z,84.12
2018-10-18T08:43:17.434Z,84.12
2018-10-18T08:44:16.878Z,83.93
2018-10-18T08:45:17.089Z,83.54
2018-10-18T08:46:17.097Z,84.12
2018-10-18T08:47:17.089Z,84.41
2018-10-18T08:48:17.101Z,83.64
2018-10-18T08:49:17.352Z,82.87
2018-10-18T08:50:17.108Z,82.87
2018-10-18T08:51:17.091Z,83.06
2018-10-18T08:52:17.100Z,83.16
2018-10-18T08:53:17.088Z,82.4
2018-10-18T08:54:17.091Z,81.67
2018-10-18T08:55:16.960Z,80.9
2018-10-18T08:56:16.831Z,81.77
2018-10-18T08:57:16.845Z,81.96
2018-10-18T08:58:16.820Z,81.48
2018-10-18T08:59:17.280Z,81.77
2018-10-18T09:00:17.081Z,81.38
2018-10-18T09:01:17.465Z,80.33
2018-10-18T09:02:16.829Z,80.27
2018-10-18T09:03:16.873Z,79.99
2018-10-18T09:04:16.838Z,79.41
2018-10-18T09:05:17.085Z,79.51
2018-10-18T09:06:17.085Z,79.03
2018-10-18T09:07:17.443Z,78.84
2018-10-18T09:08:16.834Z,78.74
2018-10-18T09:09:16.992Z,78.55
2018-10-18T09:10:17.090Z,77.5
2018-10-18T09:11:16.822Z,77.31
2018-10-18T09:12:17.073Z,77.78
2018-10-18T09:13:17.352Z,77.44
2018-10-18T09:14:17.083Z,77.63
2018-10-18T09:15:16.841Z,78.2
2018-10-18T09:16:17.081Z,77.31
2018-10-18T09:17:17.089Z,77.53
2018-10-18T09:18:16.834Z,76.67
2018-10-18T09:19:17.283Z,77.25
2018-10-18T09:20:17.112Z,78.17
2018-10-18T09:21:17.087Z,78.64
2018-10-18T09:22:16.828Z,78.55
2018-10-18T09:23:17.075Z,78.84
2018-10-18T09:24:17.087Z,78.64
2018-10-18T09:25:17.412Z,78.07
2018-10-18T09:26:16.830Z,77.5
2018-10-18T09:27:17.078Z,78.07
2018-10-18T09:28:17.082Z,77.97
2018-10-18T09:29:16.831Z,77.97
2018-10-18T09:30:17.264Z,78.36
2018-10-18T09:31:16.943Z,77.97
2018-10-18T09:32:17.085Z,78.17
2018-10-18T09:33:17.074Z,78.17
2018-10-18T09:34:17.076Z,78.17
2018-10-18T09:35:17.097Z,77.59
2018-10-18T09:36:16.836Z,77.92
2018-10-18T09:37:17.435Z,77.34
2018-10-18T09:38:17.184Z,76.29
2018-10-18T09:39:17.084Z,75.9
2018-10-18T09:40:17.096Z,75.81
2018-10-18T09:41:17.077Z,75.9
2018-10-18T09:42:17.082Z,75.62
2018-10-18T09:43:17.238Z,74.89
2018-10-18T09:44:17.243Z,75.65
2018-10-18T09:45:17.087Z,75.75
2018-10-18T09:46:17.086Z,74.98
2018-10-18T09:47:17.076Z,74.6
2018-10-18T09:48:17.072Z,74.85
2018-10-18T09:49:17.371Z,75.14
2018-10-18T09:50:17.081Z,75.81
2018-10-18T09:51:17.077Z,76.67
2018-10-18T09:52:17.078Z,76.96
2018-10-18T09:53:17.101Z,76.1
2018-10-18T09:54:17.090Z,75.81
2018-10-18T09:55:17.401Z,75.62
2018-10-18T09:56:17.301Z,76.57
2018-10-18T09:57:17.107Z,76.39
2018-10-18T09:58:17.084Z,75.81
2018-10-18T09:59:17.079Z,75.46
2018-10-18T10:00:17.085Z,75.27
2018-10-18T10:01:17.350Z,74.69
2018-10-18T10:02:17.087Z,74.51
2018-10-18T10:03:16.845Z,74.98
2018-10-18T10:04:17.261Z,75.18
2018-10-18T10:05:17.089Z,75.18
2018-10-18T10:06:17.083Z,74.41
2018-10-18T10:07:17.294Z,73.93
2018-10-18T10:08:17.084Z,74.26
2018-10-18T10:09:17.083Z,73.58
2018-10-18T10:10:17.090Z,72.72
2018-10-18T10:11:17.108Z,72.81
2018-10-18T10:12:17.089Z,72.63
2018-10-18T10:13:17.047Z,72.43
2018-10-18T10:14:16.835Z,73.1
2018-10-18T10:15:17.090Z,73.49
2018-10-18T10:16:17.090Z,73.1
2018-10-18T10:17:17.375Z,72.63
2018-10-18T10:18:17.299Z,72.05
2018-10-18T10:19:16.933Z,72.53
2018-10-18T10:20:17.093Z,72.14
2018-10-18T10:21:17.097Z,72.14
2018-10-18T10:22:17.097Z,72.53
2018-10-18T10:23:17.106Z,73
2018-10-18T10:24:17.096Z,73.1
2018-10-18T10:25:17.373Z,73.39
2018-10-18T10:26:16.849Z,72.72
2018-10-18T10:27:16.845Z,72.53
2018-10-18T10:28:16.851Z,71.47
2018-10-18T10:29:17.104Z,71.86
2018-10-18T10:30:16.941Z,71.76
2018-10-18T10:31:17.320Z,71.86
2018-10-18T10:32:17.100Z,71.76
2018-10-18T10:33:17.203Z,71.57
2018-10-18T10:34:16.875Z,72.14
2018-10-18T10:35:17.409Z,71.76
2018-10-18T10:36:16.925Z,72.05
2018-10-18T10:37:17.295Z,71.51
2018-10-18T10:38:17.100Z,71.8
2018-10-18T10:39:17.429Z,71.51
2018-10-18T10:40:17.384Z,71.98
2018-10-18T10:41:17.290Z,71.12
2018-10-18T10:42:17.002Z,70.84
2018-10-18T10:43:17.103Z,70.55
2018-10-18T10:44:16.950Z,69.4
2018-10-18T10:45:16.948Z,69.62
2018-10-18T10:46:17.270Z,69.68
2018-10-18T10:47:17.105Z,69.97
2018-10-18T10:48:17.353Z,70.84
2018-10-18T10:49:17.430Z,70.55
2018-10-18T10:50:17.307Z,70.74
2018-10-18T10:51:17.374Z,70.55
2018-10-18T10:52:16.951Z,70.74
2018-10-18T10:53:17.114Z,70.55
2018-10-18T10:54:17.326Z,70.26
2018-10-18T10:55:16.864Z,70.29
2018-10-18T10:56:16.998Z,70.29
2018-10-18T10:57:16.974Z,69.81
2018-10-18T10:58:16.969Z,69.43
2018-10-18T10:59:16.865Z,69.05
2018-10-18T11:00:17.359Z,68.18
2018-10-18T11:01:16.862Z,68.6
2018-10-18T11:02:17.519Z,68.02
2018-10-18T11:03:16.950Z,68.02
2018-10-18T11:04:17.127Z,67.93
2018-10-18T11:05:16.894Z,67.83
2018-10-18T11:06:17.415Z,67.54
2018-10-18T11:07:17.133Z,67.54
2018-10-18T11:08:16.959Z,67.83
2018-10-18T11:09:17.572Z,68.08
2018-10-18T11:10:17.228Z,67.83
2018-10-18T11:11:17.133Z,68.28
2018-10-18T11:12:17.229Z,68.41
2018-10-18T11:13:16.874Z,68.6
2018-10-18T11:14:17.248Z,68.51
2018-10-18T11:15:17.422Z,68.51
2018-10-18T11:16:16.876Z,67.64
2018-10-18T11:17:17.401Z,67.25
2018-10-18T11:18:17.448Z,67.54
2018-10-18T11:19:16.902Z,67.07
2018-10-18T11:20:17.339Z,67.35
2018-10-18T11:21:17.435Z,66.97
2018-10-18T11:22:17.151Z,66.91
2018-10-18T11:23:17.143Z,66.3
2018-10-18T11:24:17.370Z,66.58
2018-10-18T11:25:16.901Z,66.52
2018-10-18T11:26:17.492Z,66.04
2018-10-18T11:27:17.378Z,66.33
2018-10-18T11:28:16.894Z,65.66
2018-10-18T11:29:17.160Z,65.37
2018-10-18T11:30:17.431Z,65.75
2018-10-18T11:31:17.151Z,65.37
2018-10-18T11:32:16.946Z,65.17
2018-10-18T11:33:17.459Z,65.08
2018-10-18T11:34:17.247Z,65.75
2018-10-18T11:35:16.910Z,65.27
2018-10-18T11:36:17.556Z,65.46
2018-10-18T11:37:16.898Z,65.08
2018-10-18T11:38:17.057Z,65.37
2018-10-18T11:39:17.167Z,65.08
2018-10-18T11:40:16.913Z,65.75
2018-10-18T11:41:16.917Z,65.27
2018-10-18T11:42:17.477Z,64.69
2018-10-18T11:43:17.165Z,64.69
2018-10-18T11:44:17.469Z,64.73
2018-10-18T11:45:17.170Z,65.17
2018-10-18T11:46:17.167Z,65.56
2018-10-18T11:47:16.927Z,65.94
2018-10-18T11:48:17.364Z,65.37
2018-10-18T11:49:16.929Z,64.73
2018-10-18T11:50:17.046Z,64.63
2018-10-18T11:51:17.187Z,64.63
2018-10-18T11:52:17.200Z,64.53
2018-10-18T11:53:17.195Z,64.53
2018-10-18T11:54:18.051Z,64.53
2018-10-18T11:55:16.927Z,63.7
2018-10-18T11:56:17.038Z,63.7
2018-10-18T11:57:17.200Z,63.79
2018-10-18T11:58:17.185Z,63.6
2018-10-18T11:59:17.402Z,63.31
2018-10-18T12:00:16.935Z,62.83
2018-10-18T12:01:17.449Z,63.12
2018-10-18T12:02:17.479Z,62.45
2018-10-18T12:03:16.942Z,62.54
2018-10-18T12:04:16.948Z,62.54
2018-10-18T12:05:17.012Z,62.93
2018-10-18T12:06:17.223Z,62.16
2018-10-18T12:07:16.945Z,62.83
2018-10-18T12:08:17.069Z,62.45
2018-10-18T12:09:16.947Z,62.74
2018-10-18T12:10:17.207Z,62.74
2018-10-18T12:11:17.445Z,62.74
2018-10-18T12:12:17.205Z,62.45
2018-10-18T12:13:17.221Z,62.19
2018-10-18T12:14:17.022Z,61.9
2018-10-18T12:15:16.952Z,62.09
2018-10-18T12:16:17.217Z,61.61
2018-10-18T12:17:17.430Z,61.42
2018-10-18T12:18:17.228Z,61.52
2018-10-18T12:19:16.999Z,61.52
2018-10-18T12:20:17.522Z,61.8
2018-10-18T12:21:16.968Z,61.9
2018-10-18T12:22:17.229Z,61.8
2018-10-18T12:23:17.049Z,61.42
2018-10-18T12:24:16.980Z,61.22
2018-10-18T12:25:17.232Z,61.22
2018-10-18T12:26:17.135Z,61.8
2018-10-18T12:27:17.234Z,61.61
2018-10-18T12:28:17.246Z,61.52
2018-10-18T12:29:17.591Z,61.13
2018-10-18T12:30:17.248Z,61.22
2018-10-18T12:31:17.253Z,61.52
2018-10-18T12:32:17.504Z,61.52
2018-10-18T12:33:17.251Z,60.94
2018-10-18T12:34:17.250Z,61.04
2018-10-18T12:35:17.537Z,61.04
2018-10-18T12:36:17.245Z,61.04
2018-10-18T12:37:17.259Z,60.68
2018-10-18T12:38:17.552Z,60.65
2018-10-18T12:39:17.261Z,60.75
2018-10-18T12:40:17.075Z,60.65
2018-10-18T12:41:17.987Z,60.75
2018-10-18T12:42:16.999Z,61.04
2018-10-18T12:43:17.261Z,60.58
2018-10-18T12:44:18.184Z,60.2
2018-10-18T12:45:17.269Z,60.58
2018-10-18T12:46:17.019Z,60.3
2018-10-18T12:47:17.044Z,60.49
2018-10-18T12:48:17.644Z,60.49
2018-10-18T12:49:17.016Z,60.49
2018-10-18T12:50:17.563Z,60.1
2018-10-18T12:51:17.277Z,60.2
2018-10-18T12:52:17.025Z,60.1
2018-10-18T12:53:17.298Z,60
2018-10-18T12:54:17.609Z,59.33